Flight Track Log - Related Links

Times and Time Zones

All times are in EDT time to prevent confusion due to time zone crossing. See the JBU1201 flight status page for this flight to view local times or setup timezone preferences in your user account.

Time Position Orientation Groundspeed Altitude Reporting Facility
EDT Latitude Longitude Course Direction KTS MPH feet Rate Location/Type
Tue 09:22:33 PM 40.6440 -73.7750 32° Northeast  Level FlightAware ADS-B
Tue 09:25:00 PM 40.5214 -73.9572 237° Southwest  Level FlightAware Approximate
Tue 09:26:00 PM 40.4667 -74.0431 270° West  Level FlightAware Approximate
Tue 09:27:00 PM 40.4120 -74.1321 229° Southwest  Level FlightAware Approximate
Tue 09:28:00 PM 40.3546 -74.2201 232° Southwest  Level FlightAware Approximate
Tue 09:29:00 PM 40.3001 -74.3111 232° Southwest  Level FlightAware Approximate
Tue 09:30:00 PM 40.2496 -74.4005 226° Southwest  Level FlightAware Approximate
Tue 09:31:00 PM 40.2000 -74.4895 270° West  Level FlightAware Approximate
Tue 09:32:00 PM 40.1833 -74.5985 270° West  Level FlightAware Approximate
Tue 09:33:00 PM 40.1833 -74.7141 270° West  Level FlightAware Approximate
Tue 09:34:00 PM 40.1667 -74.8250 270° West  Level FlightAware Approximate
Tue 09:35:00 PM 40.1611 -74.9402 265° West  Level FlightAware Approximate
Tue 09:36:00 PM 40.1539 -75.0553 265° West  Level FlightAware Approximate
Tue 09:37:00 PM 40.1448 -75.1699 259° West  Level FlightAware Approximate
Tue 09:38:00 PM 40.1286 -75.2834 259° West  Level FlightAware Approximate
Tue 09:39:00 PM 40.1022 -75.3908 232° Southwest  Level FlightAware Approximate
Tue 09:41:26 PM 40.6450 -73.7760 360° North  Level FlightAware ADS-B
Tue 09:44:46 PM 40.6450 -73.7760 360° North 20 Level FlightAware ADS-B
Tue 09:46:36 PM 40.6440 -73.7760 180° South 23 Level FlightAware ADS-B
Tue 09:48:26 PM 40.6450 -73.7760 360° North 25 Level FlightAware ADS-B
Tue 09:52:00 PM 40.4874 -74.0085 237° Southwest  Level FlightAware Approximate
Tue 09:53:00 PM 40.4274 -74.1089 229° Southwest  Level FlightAware Approximate
Tue 09:54:00 PM 40.3614 -74.2087 232° Southwest  Level FlightAware Approximate
Tue 10:04:00 PM 40.5010 -73.9824 217° Southwest  Level FlightAware Approximate
Tue 10:05:00 PM 40.4515 -74.0728 229° Southwest  Level FlightAware Approximate
Tue 10:07:00 PM 40.5280 -73.9440 237° Southwest  Level FlightAware Approximate
Tue 10:08:00 PM 40.4703 -74.0297 217° Southwest  Level FlightAware Approximate
Tue 10:10:25 PM 40.6370 -73.7910 307° West 105 121  Level FlightAware ADS-B
Tue 10:10:54 PM 40.6470 -73.8140 300° West 173 199 600 1,857 Climbing FlightAware ADS-B
Tue 10:11:07 PM 40.6520 -73.8270 297° West 168 193 1,300 3,000 Climbing FlightAware ADS-B
Tue 10:11:14 PM 40.6530 -73.8320 285° West 163 188 1,600 1,886 Climbing FlightAware ADS-B
Tue 10:11:42 PM 40.6420 -73.8550 238° Southwest 177 204 2,400 1,500 Climbing FlightAware ADS-B
Tue 10:12:02 PM 40.6280 -73.8740 226° Southwest 207 238 2,800 1,317 Climbing FlightAware ADS-B
Tue 10:12:23 PM 40.6130 -73.8930 224° Southwest 239 275 3,300 1,448 Climbing FlightAware ADS-B
Tue 10:12:31 PM 40.6060 -73.9000 217° Southwest 250 288 3,500 2,625 Climbing FlightAware ADS-B
Tue 10:12:55 PM 40.5820 -73.9200 212° Southwest 264 304 4,700 3,000 Climbing FlightAware ADS-B
Tue 10:13:15 PM 40.5600 -73.9380 212° Southwest 270 311 5,700 3,150 Climbing FlightAware ADS-B
Tue 10:13:35 PM 40.5380 -73.9560 212° Southwest 272 313 6,800 3,333 Climbing FlightAware ADS-B
Tue 10:13:42 PM 40.5307 -73.9616 210° Southwest 274 315 7,200 3,600 Climbing FlightAware ADS-B
Tue 10:14:00 PM 40.5117 -73.9773 212° Southwest 272 313 8,300 3,455 Climbing FlightAware ADS-B
Tue 10:14:15 PM 40.4953 -73.9906 212° Southwest 271 312 9,100 3,097 Climbing FlightAware ADS-B
Tue 10:14:31 PM 40.4786 -74.0042 212° Southwest 270 311 9,900 2,609 Climbing FlightAware ADS-B
Tue 10:15:01 PM 40.4459 -74.0309 212° Southwest 284 327 11,100 2,053 Climbing FlightAware ADS-B
Tue 10:15:09 PM 40.4368 -74.0387 213° Southwest 294 338 11,200 857 Climbing FlightAware ADS-B
Tue 10:15:15 PM 40.4307 -74.0453 219° Southwest 299 344 11,300 1,000 Climbing FlightAware ADS-B
Tue 10:15:21 PM 40.4254 -74.0532 229° Southwest 305 351 11,400 750 Climbing FlightAware ADS-B
Tue 10:15:31 PM 40.4167 -74.0693 235° Southwest 316 364 11,500 1,143 Climbing FlightAware ADS-B
Tue 10:16:03 PM 40.3904 -74.1227 237° Southwest 340 391 12,200 1,672 Climbing FlightAware ADS-B
Tue 10:16:32 PM 40.3658 -74.1724 237° Southwest 337 388 13,200 2,000 Climbing FlightAware ADS-B
Tue 10:17:00 PM 40.3418 -74.2209 237° Southwest 346 398 14,100 2,000 Climbing FlightAware ADS-B
Tue 10:17:05 PM 40.3378 -74.2312 243° Southwest 347 399 14,300 2,182 Climbing FlightAware ADS-B
Tue 10:17:11 PM 40.3347 -74.2422 250° West 348 400 14,500 2,167 Climbing FlightAware ADS-B
Tue 10:17:41 PM 40.3234 -74.3044 257° West 350 403 15,600 2,066 Climbing FlightAware ADS-B
Tue 10:18:12 PM 40.3127 -74.3682 258° West 356 410 16,600 2,172 Climbing FlightAware ADS-B
Tue 10:18:39 PM 40.3025 -74.4267 257° West 355 409 17,700 2,746 Climbing FlightAware ADS-B
Tue 10:19:11 PM 40.2913 -74.4905 257° West 340 391 19,300 2,769 Climbing FlightAware ADS-B
Tue 10:19:31 PM 40.2840 -74.5312 257° West 338 389 20,100 2,516 Climbing FlightAware ADS-B
Tue 10:19:42 PM 40.2802 -74.5524 257° West 337 388 20,600 2,714 Climbing FlightAware ADS-B
Tue 10:20:13 PM 40.2698 -74.6115 257° West 320 368 22,000 2,069 Climbing FlightAware ADS-B
Tue 10:20:40 PM 40.2606 -74.6631 257° West 337 388 22,600 1,588 Climbing FlightAware ADS-B
Tue 10:20:47 PM 40.2580 -74.6775 257° West 326 375 22,900 1,500 Climbing FlightAware ADS-B
Tue 10:21:12 PM 40.2493 -74.7267 257° West 332 382 23,400 1,355 Climbing FlightAware ADS-B
Tue 10:21:18 PM 40.2472 -74.7383 257° West 332 382 23,600 1,579 Climbing FlightAware ADS-B
Tue 10:21:50 PM 40.2362 -74.7997 257° West 335 386 24,400 1,238 Climbing FlightAware ADS-B
Tue 10:22:21 PM 40.2251 -74.8611 257° West 342 394 24,900 923 Climbing FlightAware ADS-B
Tue 10:22:29 PM 40.2219 -74.8784 256° West 347 399 25,000 400 Climbing FlightAware ADS-B
Tue 10:22:51 PM 40.2139 -74.9227 257° West 358 412 25,100 792 Climbing FlightAware ADS-B
Tue 10:23:22 PM 40.2020 -74.9890 257° West 364 419 25,700 1,082 Climbing FlightAware ADS-B
Tue 10:23:52 PM 40.1902 -75.0545 257° West 369 425 26,200 1,300 Climbing FlightAware ADS-B
Tue 10:24:22 PM 40.1783 -75.1197 257° West 365 420 27,000 1,180 Climbing FlightAware ADS-B
Tue 10:24:53 PM 40.1662 -75.1858 257° West 371 427 27,400 492 Climbing FlightAware ADS-B
Tue 10:25:23 PM 40.1538 -75.2530 256° West 385 443 27,500 563 Climbing FlightAware ADS-B
Tue 10:25:57 PM 40.1396 -75.3302 256° West 390 449 28,000 800 Climbing FlightAware ADS-B
Tue 10:26:08 PM 40.1352 -75.3546 257° West 391 450 28,100 720 Climbing FlightAware ADS-B
Tue 10:26:22 PM 40.1304 -75.3872 259° West 392 451 28,300 1,000 Climbing FlightAware ADS-B
Tue 10:26:38 PM 40.1256 -75.4245 260° West 392 451 28,600 1,043 Climbing FlightAware ADS-B
Tue 10:26:45 PM 40.1218 -75.4409 253° West 391 450 28,700 1,000 Climbing FlightAware ADS-B
Tue 10:26:50 PM 40.1184 -75.4521 248° West 391 450 28,800 1,263 Climbing FlightAware ADS-B
Tue 10:27:04 PM 40.1064 -75.4797 240° Southwest 393 452 29,100 1,143 Climbing FlightAware ADS-B
Tue 10:27:11 PM 40.0985 -75.4929 232° Southwest 395 455 29,200 1,000 Climbing FlightAware ADS-B
Tue 10:27:40 PM 40.0630 -75.5462 229° Southwest 395 455 29,700 900 Climbing FlightAware ADS-B
Tue 10:28:11 PM 40.0267 -75.6003 229° Southwest 398 458 30,100 1,180 Climbing FlightAware ADS-B
Tue 10:28:41 PM 39.9903 -75.6550 229° Southwest 391 450 30,900 1,600 Climbing FlightAware ADS-B
Tue 10:29:11 PM 39.9546 -75.7084 229° Southwest 384 442 31,700 1,377 Climbing FlightAware ADS-B
Tue 10:29:42 PM 39.9189 -75.7616 229° Southwest 383 441 32,300 968 Climbing FlightAware ADS-B
Tue 10:30:13 PM 39.8831 -75.8150 229° Southwest 388 447 32,700 1,161 Climbing FlightAware ADS-B
Tue 10:30:44 PM 39.8467 -75.8691 229° Southwest 379 436 33,500 1,279 Climbing FlightAware ADS-B
Tue 10:31:14 PM 39.8122 -75.9205 229° Southwest 372 428 34,000 484 Climbing FlightAware ADS-B
Tue 10:31:46 PM 39.7766 -75.9731 229° Southwest 366 421 34,000  Level FlightAware ADS-B
Tue 10:32:16 PM 39.7427 -76.0235 229° Southwest 370 426 34,000  Level FlightAware ADS-B
Tue 10:32:46 PM 39.7087 -76.0741 229° Southwest 369 425 34,000  Level FlightAware ADS-B
Tue 10:33:19 PM 39.6723 -76.1279 229° Southwest 367 422 34,000  Level FlightAware ADS-B
Tue 10:33:52 PM 39.6354 -76.1822 229° Southwest 365 420 34,000  Level FlightAware ADS-B
Tue 10:34:22 PM 39.6016 -76.2321 229° Southwest 363 418 34,000  Level FlightAware ADS-B
Tue 10:34:54 PM 39.5665 -76.2836 229° Southwest 363 418 34,000  Level FlightAware ADS-B
Tue 10:35:24 PM 39.5330 -76.3328 229° Southwest 364 419 34,000  Level FlightAware ADS-B
Tue 10:35:54 PM 39.4992 -76.3823 229° Southwest 366 421 34,000  Level FlightAware ADS-B
Tue 10:36:27 PM 39.4626 -76.4356 228° Southwest 366 421 34,000  Level FlightAware ADS-B
Tue 10:36:57 PM 39.4287 -76.4852 229° Southwest 366 421 34,000  Level FlightAware ADS-B
Tue 10:37:29 PM 39.3930 -76.5372 228° Southwest 367 422 34,000  Level FlightAware ADS-B
Tue 10:38:00 PM 39.3588 -76.5870 228° Southwest 367 422 34,000  Level FlightAware ADS-B
Tue 10:38:32 PM 39.3217 -76.6407 228° Southwest 366 421 34,000  Level FlightAware ADS-B
Tue 10:39:03 PM 39.2875 -76.6905 228° Southwest 366 421 34,000  Level FlightAware ADS-B
Tue 10:39:34 PM 39.2520 -76.7420 228° Southwest 368 423 34,000  Level FlightAware ADS-B
Tue 10:40:05 PM 39.2177 -76.7915 228° Southwest 368 423 34,000  Level FlightAware ADS-B
Tue 10:40:37 PM 39.1815 -76.8438 228° Southwest 368 423 34,000  Level FlightAware ADS-B
Tue 10:41:09 PM 39.1446 -76.8970 228° Southwest 371 427 34,000  Level FlightAware ADS-B
Tue 10:41:40 PM 39.1100 -76.9469 228° Southwest 373 429 34,000  Level FlightAware ADS-B
Tue 10:42:10 PM 39.0752 -76.9968 228° Southwest 373 429 34,000  Level FlightAware ADS-B
Tue 10:42:29 PM 39.0524 -77.0279 227° Southwest 375 432 34,000  Level FlightAware ADS-B
Tue 10:43:00 PM 39.0118 -77.0734 221° Southwest 377 434 34,000  Level FlightAware ADS-B
Tue 10:43:31 PM 38.9714 -77.1181 221° Southwest 374 430 34,000  Level FlightAware ADS-B
Tue 10:44:01 PM 38.9324 -77.1612 221° Southwest 373 429 34,000  Level FlightAware ADS-B
Tue 10:44:31 PM 38.8920 -77.2058 221° Southwest 372 428 34,000  Level FlightAware ADS-B
Tue 10:45:01 PM 38.8531 -77.2485 221° Southwest 372 428 34,000  Level FlightAware ADS-B
Tue 10:45:32 PM 38.8123 -77.2931 220° Southwest 373 429 34,000  Level FlightAware ADS-B
Tue 10:46:03 PM 38.7730 -77.3360 220° Southwest 375 432 34,000  Level FlightAware ADS-B
Tue 10:46:34 PM 38.7311 -77.3818 220° Southwest 377 434 34,000  Level FlightAware ADS-B
Tue 10:47:05 PM 38.6900 -77.4266 220° Southwest 377 434 34,000  Level FlightAware ADS-B
Tue 10:47:36 PM 38.6486 -77.4715 220° Southwest 377 434 34,000  Level FlightAware ADS-B
Tue 10:48:11 PM 38.6030 -77.5209 220° Southwest 377 434 34,000  Level FlightAware ADS-B
Tue 10:48:45 PM 38.5570 -77.5706 220° Southwest 374 430 34,000  Level FlightAware ADS-B
Tue 10:49:16 PM 38.5174 -77.6135 220° Southwest 374 430 34,000  Level FlightAware ADS-B
Tue 10:49:46 PM 38.4775 -77.6566 220° Southwest 373 429 34,000  Level FlightAware ADS-B
Tue 10:50:18 PM 38.4356 -77.7018 220° Southwest 374 430 34,000  Level FlightAware ADS-B
Tue 10:50:48 PM 38.3958 -77.7448 220° Southwest 376 433 34,000  Level FlightAware ADS-B
Tue 10:51:18 PM 38.3557 -77.7878 220° Southwest 377 434 34,000  Level FlightAware ADS-B
Tue 10:51:58 PM 38.3019 -77.8457 220° Southwest 379 436 34,000  Level FlightAware ADS-B
Tue 10:52:30 PM 38.2592 -77.8913 220° Southwest 380 437 34,000  Level FlightAware ADS-B
Tue 10:53:03 PM 38.2151 -77.9385 220° Southwest 381 438 34,000  Level FlightAware ADS-B
Tue 10:53:37 PM 38.1697 -77.9869 220° Southwest 380 437 34,000  Level FlightAware ADS-B
Tue 10:54:07 PM 38.1289 -78.0303 220° Southwest 380 437 34,000  Level FlightAware ADS-B
Tue 10:54:39 PM 38.0855 -78.0766 220° Southwest 380 437 34,000 345 Level FlightAware ADS-B
Tue 10:55:34 PM 38.0110 -78.1560 220° Southwest 378 435 34,500 839 Climbing FlightAware ADS-B
Tue 10:56:12 PM 37.9590 -78.2060 217° Southwest 375 432 35,300 1,364 Climbing FlightAware ADS-B
Tue 10:56:18 PM 37.9507 -78.2145 219° Southwest 376 433 35,500 618 Climbing FlightAware ADS-B
Tue 10:57:20 PM 37.8640 -78.2960 217° Southwest 381 438 36,000 306 Climbing FlightAware ADS-B
Tue 10:57:56 PM 37.8130 -78.3450 217° Southwest 380 437 36,000  Level FlightAware ADS-B
Tue 10:58:30 PM 37.7660 -78.3900 217° Southwest 383 441 36,000  Level FlightAware ADS-B
Tue 10:59:04 PM 37.7160 -78.4370 217° Southwest 387 445 36,000  Level FlightAware ADS-B
Tue 10:59:42 PM 37.6630 -78.4870 217° Southwest 389 448 36,000  Level FlightAware ADS-B
Tue 11:00:14 PM 37.6180 -78.5300 217° Southwest 391 450 36,000  Level FlightAware ADS-B
Tue 11:00:50 PM 37.5640 -78.5800 216° Southwest 395 455 36,000  Level FlightAware ADS-B
Tue 11:01:26 PM 37.5110 -78.6300 217° Southwest 399 459 36,000  Level FlightAware ADS-B
Tue 11:01:58 PM 37.4630 -78.6760 217° Southwest 400 460 36,000  Level FlightAware ADS-B
Tue 11:02:34 PM 37.4100 -78.7250 216° Southwest 400 460 36,000  Level FlightAware ADS-B
Tue 11:03:06 PM 37.3630 -78.7690 217° Southwest 401 461 36,000  Level FlightAware ADS-B
Tue 11:03:43 PM 37.3080 -78.8210 217° Southwest 400 460 36,000  Level FlightAware ADS-B
Tue 11:04:17 PM 37.2570 -78.8680 216° Southwest 399 459 36,000  Level FlightAware ADS-B
Tue 11:05:03 PM 37.1900 -78.9300 216° Southwest 400 460 36,000  Level FlightAware ADS-B
Tue 11:05:37 PM 37.1400 -78.9770 217° Southwest 401 461 36,000  Level FlightAware ADS-B
Tue 11:06:15 PM 37.0850 -79.0290 217° Southwest 402 463 36,000  Level FlightAware ADS-B
Tue 11:06:53 PM 37.0260 -79.0830 216° Southwest 403 464 36,000  Level FlightAware ADS-B
Tue 11:07:29 PM 36.9710 -79.1340 217° Southwest 403 464 36,000  Level FlightAware ADS-B
Tue 11:08:05 PM 36.9170 -79.1840 217° Southwest 401 461 36,000  Level FlightAware ADS-B
Tue 11:08:37 PM 36.8710 -79.2260 216° Southwest 402 463 36,000  Level FlightAware ADS-B
Tue 11:09:15 PM 36.8130 -79.2800 217° Southwest 403 464 36,000  Level FlightAware ADS-B
Tue 11:09:45 PM 36.7700 -79.3190 216° Southwest 329 379 36,000  Level FlightAware ADS-B
Tue 11:10:18 PM 36.7250 -79.3600 216° Southwest 403 464 36,000  Level FlightAware ADS-B
Tue 11:10:58 PM 36.6600 -79.4200 217° Southwest 402 463 36,000  Level FlightAware ADS-B
Tue 11:11:32 PM 36.6080 -79.4670 216° Southwest 403 464 36,000  Level FlightAware ADS-B
Tue 11:12:08 PM 36.5560 -79.5150 217° Southwest 404 465 36,000  Level FlightAware ADS-B
Tue 11:12:43 PM 36.5060 -79.5610 216° Southwest 399 459 36,000  Level FlightAware ADS-B
Tue 11:13:18 PM 36.4490 -79.6120 216° Southwest 404 465 36,000  Level FlightAware ADS-B
Tue 11:13:53 PM 36.3970 -79.6600 217° Southwest 398 458 36,000  Level FlightAware ADS-B
Tue 11:14:28 PM 36.3440 -79.7080 216° Southwest 399 459 36,000  Level FlightAware ADS-B
Tue 11:15:03 PM 36.2910 -79.7560 216° Southwest 400 460 36,000  Level FlightAware ADS-B
Tue 11:15:37 PM 36.2390 -79.8030 216° Southwest 402 463 36,000  Level FlightAware ADS-B
Tue 11:16:09 PM 36.1970 -79.8400 215° Southwest 403 464 36,000  Level FlightAware ADS-B
Tue 11:16:48 PM 36.1360 -79.8950 216° Southwest 404 465 36,000  Level FlightAware ADS-B
Tue 11:17:22 PM 36.0740 -79.9450 213° Southwest 408 470 36,000  Level FlightAware ADS-B
Tue 11:17:57 PM 36.0150 -79.9790 205° Southwest 421 484 36,000  Level FlightAware ADS-B
Tue 11:18:47 PM 35.9260 -80.0140 198° South 420 483 36,000  Level FlightAware ADS-B
Tue 11:19:27 PM 35.8440 -80.0420 195° South 431 496 36,000  Level FlightAware ADS-B
Tue 11:20:03 PM 35.7820 -80.0630 195° South 433 498 36,000  Level FlightAware ADS-B
Tue 11:20:42 PM 35.6970 -80.0900 194° South 436 502 36,000  Level FlightAware ADS-B
Tue 11:21:12 PM 35.6390 -80.1090 195° South 435 501 36,000  Level FlightAware ADS-B
Tue 11:21:58 PM 35.5460 -80.1400 195° South 433 498 36,000  Level FlightAware ADS-B
Tue 11:22:34 PM 35.4770 -80.1620 195° South 432 497 36,000  Level FlightAware ADS-B
Tue 11:23:06 PM 35.4150 -80.1820 195° South 431 496 36,000  Level FlightAware ADS-B
Tue 11:23:42 PM 35.3450 -80.2050 195° South 430 495 36,000  Level FlightAware ADS-B
Tue 11:24:18 PM 35.2770 -80.2270 195° South 430 495 36,000  Level FlightAware ADS-B
Tue 11:24:58 PM 35.1990 -80.2520 195° South 430 495 36,000  Level FlightAware ADS-B
Tue 11:25:34 PM 35.1290 -80.2750 195° South 431 496 36,000  Level FlightAware ADS-B
Tue 11:26:08 PM 35.0640 -80.2960 195° South 432 497 36,000  Level FlightAware ADS-B
Tue 11:26:43 PM 34.9970 -80.3170 194° South 432 497 36,000  Level FlightAware ADS-B
Tue 11:27:20 PM 34.9250 -80.3400 195° South 431 496 36,000  Level FlightAware ADS-B
Tue 11:27:50 PM 34.8670 -80.3590 195° South 431 496 36,000  Level FlightAware ADS-B
Tue 11:28:35 PM 34.7800 -80.3860 194° South 432 497 36,000  Level FlightAware ADS-B
Tue 11:29:05 PM 34.7230 -80.4040 195° South 433 498 36,000  Level FlightAware ADS-B
Tue 11:29:45 PM 34.6490 -80.4280 195° South 430 495 36,000  Level FlightAware ADS-B
Tue 11:30:20 PM 34.5830 -80.4490 195° South 424 488 36,000  Level FlightAware ADS-B
Tue 11:30:55 PM 34.5120 -80.4710 194° South 426 490 36,000  Level FlightAware ADS-B
Tue 11:31:25 PM 34.4550 -80.4890 195° South 430 495 36,000  Level FlightAware ADS-B
Tue 11:32:05 PM 34.3800 -80.5130 195° South 429 494 36,000  Level FlightAware ADS-B
Tue 11:32:55 PM 34.2820 -80.5440 195° South 427 491 36,000  Level FlightAware ADS-B
Tue 11:33:35 PM 34.2080 -80.5670 194° South 427 491 36,000  Level FlightAware ADS-B
Tue 11:34:10 PM 34.1390 -80.5890 195° South 427 491 36,000  Level FlightAware ADS-B
Tue 11:34:50 PM 34.0620 -80.6130 194° South 430 495 36,000  Level FlightAware ADS-B
Tue 11:35:20 PM 34.0080 -80.6300 195° South 429 494 36,000  Level FlightAware ADS-B
Tue 11:35:55 PM 33.9390 -80.6510 194° South 430 495 36,000  Level FlightAware ADS-B
Tue 11:36:30 PM 33.8690 -80.6730 195° South 430 495 36,000  Level FlightAware ADS-B
Tue 11:37:10 PM 33.7950 -80.6960 194° South 431 496 36,000  Level FlightAware ADS-B
Tue 11:37:42 PM 33.7300 -80.7170 195° South 432 497 36,000  Level FlightAware ADS-B
Tue 11:38:17 PM 33.6610 -80.7380 194° South 434 499 36,000  Level FlightAware ADS-B
Tue 11:38:52 PM 33.5940 -80.7590 195° South 433 498 36,000  Level FlightAware ADS-B
Tue 11:39:27 PM 33.5250 -80.7800 194° South 435 501 36,000  Level FlightAware ADS-B
Tue 11:40:02 PM 33.4570 -80.8010 194° South 436 502 36,000  Level FlightAware ADS-B
Tue 11:40:37 PM 33.3890 -80.8220 194° South 435 501 36,000  Level FlightAware ADS-B
Tue 11:41:12 PM 33.3200 -80.8430 194° South 436 502 36,000  Level FlightAware ADS-B
Tue 11:41:47 PM 33.2520 -80.8640 194° South 437 503 36,000  Level FlightAware ADS-B
Tue 11:42:22 PM 33.1840 -80.8850 194° South 438 504 36,000  Level FlightAware ADS-B
Tue 11:42:57 PM 33.1150 -80.9060 194° South 439 505 36,000  Level FlightAware ADS-B
Tue 11:43:32 PM 33.0450 -80.9270 194° South 439 505 36,000  Level FlightAware ADS-B
Tue 11:44:07 PM 32.9770 -80.9480 195° South 440 506 36,000  Level FlightAware ADS-B
Tue 11:44:42 PM 32.9070 -80.9700 195° South 441 507 36,000  Level FlightAware ADS-B
Tue 11:45:17 PM 32.8370 -80.9910 194° South 449 517 36,000  Level FlightAware ADS-B
Tue 11:45:57 PM 32.7570 -81.0150 194° South 450 518 36,000  Level FlightAware ADS-B
Tue 11:46:32 PM 32.6870 -81.0360 194° South 448 516 36,000  Level FlightAware ADS-B
Tue 11:47:07 PM 32.6170 -81.0570 194° South 447 514 36,000  Level FlightAware ADS-B
Tue 11:47:47 PM 32.5370 -81.0820 195° South 448 516 36,000  Level FlightAware ADS-B
Tue 11:48:25 PM 32.4610 -81.1050 194° South 448 516 36,000  Level FlightAware ADS-B
Tue 11:49:00 PM 32.3910 -81.1260 194° South 451 519 36,000  Level FlightAware ADS-B
Tue 11:49:58 PM 32.2820 -81.1580 194° South 452 520 36,000  Level FlightAware ADS-B
Tue 11:50:39 PM 32.2010 -81.1820 194° South 454 522 36,000 82 Level FlightAware ADS-B
Tue 11:51:11 PM 32.1400 -81.1930 189° South 453 521 36,100  Climbing FlightAware ADS-B
Tue 11:51:58 PM 32.0370 -81.1950 181° South 452 520 36,000 -75 Descending FlightAware ADS-B
Tue 11:52:31 PM 31.9660 -81.1930 179° South 454 522 36,000  Level FlightAware ADS-B
Tue 11:53:03 PM 31.8890 -81.1910 179° South 452 520 36,000  Level FlightAware ADS-B
Tue 11:53:44 PM 31.8160 -81.1890 179° South 444 511 36,000  Level FlightAware ADS-B
Tue 11:54:24 PM 31.7400 -81.1860 178° South 443 510 36,000  Level FlightAware ADS-B
Tue 11:54:57 PM 31.6620 -81.1840 179° South 442 509 36,000  Level FlightAware ADS-B
Tue 11:55:29 PM 31.5930 -81.1820 179° South 443 510 36,000  Level FlightAware ADS-B
Tue 11:56:08 PM 31.5170 -81.1790 178° South 443 510 36,000  Level FlightAware ADS-B
Tue 11:56:40 PM 31.4490 -81.1770 179° South 443 510 36,000 82 Level FlightAware ADS-B
Tue 11:57:21 PM 31.3620 -81.1750 179° South 439 505 36,100  Climbing FlightAware ADS-B
Tue 11:58:01 PM 31.2800 -81.1720 178° South 438 504 36,000 -72 Descending FlightAware ADS-B
Tue 11:58:44 PM 31.2050 -81.1690 178° South 437 503 36,000  Level FlightAware ADS-B
Tue 11:59:20 PM 31.1430 -81.1670 178° South 437 503 36,000  Level FlightAware ADS-B
Tue 11:59:56 PM 31.0810 -81.1640 178° South 437 503 36,000  Level FlightAware ADS-B
Wed 12:00:33 AM 31.0180 -81.1620 178° South 437 503 36,000  Level FlightAware ADS-B
Wed 12:01:09 AM 30.9560 -81.1590 178° South 437 503 36,000  Level FlightAware ADS-B
Wed 12:01:45 AM 30.8940 -81.1570 178° South 437 503 36,000  Level FlightAware ADS-B
Wed 12:02:21 AM 30.8320 -81.1540 178° South 437 503 36,000  Level FlightAware ADS-B
Wed 12:02:58 AM 30.7690 -81.1520 178° South 437 503 36,000  Level FlightAware ADS-B
Wed 12:03:34 AM 30.7070 -81.1490 178° South 437 503 36,000  Level FlightAware ADS-B
Wed 12:04:07 AM 30.5540 -81.1500 180° South 441 507 36,000  Level FlightAware ADS-B
Wed 12:04:43 AM 30.4740 -81.1470 178° South 440 506 36,000  Level FlightAware ADS-B
Wed 12:05:19 AM 30.3990 -81.1450 179° South 440 506 36,000  Level FlightAware ADS-B
Wed 12:05:55 AM 30.3260 -81.1430 179° South 439 505 36,000  Level FlightAware ADS-B
Wed 12:06:31 AM 30.2540 -81.1410 179° South 438 504 36,000  Level FlightAware ADS-B
Wed 12:07:09 AM 30.1810 -81.1390 179° South 437 503 36,000  Level FlightAware ADS-B
Wed 12:07:38 AM 30.1230 -81.1370 178° South 436 502 36,000  Level FlightAware ADS-B
Wed 12:08:13 AM 30.0480 -81.1350 179° South 435 501 36,000  Level FlightAware ADS-B
Wed 12:09:07 AM 29.9460 -81.1320 179° South 435 501 36,000  Level FlightAware ADS-B
Wed 12:09:46 AM 29.8790 -81.1290 178° South 435 501 36,000  Level FlightAware ADS-B
Wed 12:10:27 AM 29.7750 -81.1270 179° South 435 501 36,000  Level FlightAware ADS-B
Wed 12:11:10 AM 29.6990 -81.1250 179° South 436 502 36,000  Level FlightAware ADS-B
Wed 12:11:51 AM 29.6970 -81.1250 180° South 438 504 36,000  Level FlightAware ADS-B
Wed 12:12:29 AM 29.5270 -81.1190 178° South 438 504 36,000  Level FlightAware ADS-B
Wed 12:13:07 AM 29.4620 -81.1170 178° South 438 504 36,000  Level FlightAware ADS-B
Wed 12:13:45 AM 29.4820 -81.1110 15° North 435 501 36,000  Level FlightAware ADS-B
Wed 12:14:21 AM 29.4210 -81.1000 171° South 435 501 36,000  Level FlightAware ADS-B
Wed 12:14:57 AM 29.3600 -81.0890 171° South 435 501 36,000  Level FlightAware ADS-B
Wed 12:15:33 AM 29.2990 -81.0780 171° South 435 501 36,000  Level FlightAware ADS-B
Wed 12:16:09 AM 29.2380 -81.0670 171° South 435 501 36,000  Level FlightAware ADS-B
Wed 12:16:46 AM 29.1760 -81.0550 170° South 435 501 36,000  Level FlightAware ADS-B
Wed 12:17:22 AM 29.1150 -81.0440 171° South 435 501 36,000  Level FlightAware ADS-B
Wed 12:17:28 AM 28.9980 -80.8260 121° Southeast 433 498 36,000  Level FlightAware ADS-B
Wed 12:17:53 AM 28.9500 -80.8070 161° South 436 502 36,000  Level FlightAware ADS-B
Wed 12:18:33 AM 28.8770 -80.7780 161° South 428 493 36,000  Level FlightAware ADS-B
Wed 12:19:08 AM 28.8070 -80.7490 160° South 434 499 36,000  Level FlightAware ADS-B
Wed 12:19:44 AM 28.7370 -80.7220 161° South 434 499 36,000  Level FlightAware ADS-B
Wed 12:20:17 AM 28.6780 -80.6980 160° South 436 502 36,000  Level FlightAware ADS-B
Wed 12:20:53 AM 28.6070 -80.6700 161° South 437 503 36,000  Level FlightAware ADS-B
Wed 12:21:29 AM 28.5380 -80.6430 161° South 437 503 36,000  Level FlightAware ADS-B
Wed 12:22:04 AM 28.4700 -80.6150 160° South 439 505 36,000  Level FlightAware ADS-B
Wed 12:22:37 AM 28.4080 -80.5910 161° South 439 505 36,000  Level FlightAware ADS-B
Wed 12:23:12 AM 28.3430 -80.5650 161° South 440 506 36,000  Level FlightAware ADS-B
Wed 12:23:54 AM 28.2700 -80.5350 160° South 440 506 36,000  Level FlightAware ADS-B
Wed 12:24:29 AM 28.1920 -80.5060 162° South 437 503 36,000  Level FlightAware ADS-B
Wed 12:25:05 AM 28.1240 -80.4790 161° South 434 499 36,000  Level FlightAware ADS-B
Wed 12:25:41 AM 28.0560 -80.4520 161° South 431 496 36,000  Level FlightAware ADS-B
Wed 12:26:15 AM 28.0020 -80.4300 160° South 431 496 36,000 -716 Level FlightAware ADS-B
Wed 12:26:48 AM 27.9310 -80.4030 161° South 497 572 35,200 -1,313 Descending FlightAware ADS-B
Wed 12:27:19 AM 27.8760 -80.3810 161° South 424 488 34,600 -450 Descending FlightAware ADS-B
Wed 12:28:08 AM 27.7990 -80.3500 160° South 424 488 34,600 -2,100 Level FlightAware ADS-B
Wed 12:28:39 AM 27.7180 -80.3190 161° South 441 507 31,800 -2,735 Descending FlightAware ADS-B
Wed 12:29:16 AM 27.6600 -80.2960 161° South 441 507 31,500 -247 Descending FlightAware ADS-B
Wed 12:29:52 AM 27.6010 -80.2720 160° South 441 507 31,500 -3,493 Level FlightAware ADS-B
Wed 12:30:23 AM 27.5150 -80.2400 162° South 426 490 27,600 -4,676 Descending FlightAware ADS-B
Wed 12:31:00 AM 27.4490 -80.2140 161° South 425 489 26,200 -2,211 Descending FlightAware ADS-B
Wed 12:31:39 AM 27.3730 -80.1850 161° South 408 470 24,800 -2,143 Descending FlightAware ADS-B
Wed 12:32:10 AM 27.3190 -80.1640 161° South 408 470 23,700 -2,123 Descending FlightAware ADS-B
Wed 12:32:44 AM 27.2570 -80.1400 161° South 391 450 22,500 -2,143 Descending FlightAware ADS-B
Wed 12:33:20 AM 27.1960 -80.1160 161° South 390 449 21,200 -2,057 Descending FlightAware ADS-B
Wed 12:33:54 AM 27.1380 -80.0940 161° South 375 432 20,100 -2,057 Descending FlightAware ADS-B
Wed 12:34:30 AM 27.0770 -80.0700 161° South 376 433 18,800 -2,057 Descending FlightAware ADS-B
Wed 12:35:04 AM 27.0220 -80.0490 161° South 362 417 17,700 -1,971 Descending FlightAware ADS-B
Wed 12:35:40 AM 26.9650 -80.0270 161° South 356 410 16,500 -1,859 Descending FlightAware ADS-B
Wed 12:36:15 AM 26.9100 -80.0060 161° South 354 407 15,500 -1,690 Descending FlightAware ADS-B
Wed 12:36:51 AM 26.8550 -79.9850 161° South 344 396 14,500 -1,629 Descending FlightAware ADS-B
Wed 12:37:25 AM 26.8030 -79.9650 161° South 341 392 13,600 -1,680 Descending FlightAware ADS-B
Wed 12:38:06 AM 26.7410 -79.9410 161° South 344 396 12,400 -1,800 Descending FlightAware ADS-B
Wed 12:38:45 AM 26.6820 -79.9180 161° South 328 377 11,200 -1,543 Descending FlightAware ADS-B
Wed 12:39:16 AM 26.6380 -79.9020 162° South 321 369 10,600 -1,015 Descending FlightAware ADS-B
Wed 12:39:50 AM 26.5910 -79.8840 161° South 293 337 10,100 -1,000 Descending FlightAware ADS-B
Wed 12:40:16 AM 26.5580 -79.8710 161° South 293 337 9,600 -1,333 Descending FlightAware ADS-B
Wed 12:40:26 AM 26.5450 -79.8660 161° South 290 334 9,300 -1,400 Descending FlightAware ADS-B
Wed 12:40:46 AM 26.5200 -79.8560 160° South 286 329 8,900 -1,469 Descending FlightAware ADS-B
Wed 12:41:15 AM 26.4820 -79.8420 162° South 276 318 8,100 -1,224 Descending FlightAware ADS-B
Wed 12:41:35 AM 26.4580 -79.8330 161° South 280 322 7,900 -387 Descending FlightAware ADS-B
Wed 12:41:46 AM 26.4440 -79.8320 176° South 287 330 7,900  Level FlightAware ADS-B
Wed 12:42:06 AM 26.4180 -79.8400 195° South 279 321 7,900  Level FlightAware ADS-B
Wed 12:42:20 AM 26.4000 -79.8480 202° Southwest 284 327 7,900  Level FlightAware ADS-B
Wed 12:42:42 AM 26.3770 -79.8620 209° Southwest 286 329 7,900  Level FlightAware ADS-B
Wed 12:42:56 AM 26.3620 -79.8770 222° Southwest 286 329 7,900  Level FlightAware ADS-B
Wed 12:43:16 AM 26.3420 -79.8980 223° Southwest 287 330 7,900  Level FlightAware ADS-B
Wed 12:43:35 AM 26.3220 -79.9170 220° Southwest 281 323 7,900  Level FlightAware ADS-B
Wed 12:43:56 AM 26.3020 -79.9360 220° Southwest 281 323 7,900  Level FlightAware ADS-B
Wed 12:44:16 AM 26.2820 -79.9560 222° Southwest 281 323 7,900 -136 Level FlightAware ADS-B
Wed 12:44:40 AM 26.2570 -79.9790 220° Southwest 279 321 7,800 -894 Descending FlightAware ADS-B
Wed 12:45:03 AM 26.2340 -80.0020 222° Southwest 285 328 7,200 -1,500 Descending FlightAware ADS-B
Wed 12:45:16 AM 26.2220 -80.0130 219° Southwest 282 325 6,900 -1,313 Descending FlightAware ADS-B
Wed 12:45:35 AM 26.2020 -80.0320 220° Southwest 279 321 6,500 -1,535 Descending FlightAware ADS-B
Wed 12:45:59 AM 26.1800 -80.0570 226° Southwest 281 323 5,800 -1,714 Descending FlightAware ADS-B
Wed 12:46:03 AM 26.1780 -80.0620 246° West 282 325 5,700 -1,500 Descending FlightAware ADS-B
Wed 12:46:19 AM 26.1700 -80.0830 247° West 279 321 5,300 -1,333 Descending FlightAware ADS-B
Wed 12:46:39 AM 26.1630 -80.1100 254° West 276 318 4,900 -1,350 Descending FlightAware ADS-B
Wed 12:46:59 AM 26.1550 -80.1380 252° West 275 316 4,400 -1,297 Descending FlightAware ADS-B
Wed 12:47:16 AM 26.1500 -80.1620 257° West 272 313 4,100 -909 Descending FlightAware ADS-B
Wed 12:47:32 AM 26.1500 -80.1830 270° West 261 300 3,900 -343 Descending FlightAware ADS-B
Wed 12:47:51 AM 26.1500 -80.2070 270° West 244 281 3,900 -343 Level FlightAware ADS-B
Wed 12:48:07 AM 26.1500 -80.2270 270° West 236 272 3,700 -750 Descending FlightAware ADS-B
Wed 12:48:31 AM 26.1500 -80.2550 270° West 230 265 3,400 -818 Descending FlightAware ADS-B
Wed 12:48:51 AM 26.1500 -80.2780 270° West 230 265 3,100 -900 Descending FlightAware ADS-B
Wed 12:49:11 AM 26.1490 -80.3000 267° West 217 250 2,800 -800 Descending FlightAware ADS-B
Wed 12:49:21 AM 26.1450 -80.3110 248° West 205 236 2,700 -400 Descending FlightAware ADS-B
Wed 12:49:26 AM 26.1420 -80.3150 230° Southwest 199 229 2,700 -400 Level FlightAware ADS-B
Wed 12:49:36 AM 26.1340 -80.3200 209° Southwest 195 224 2,600 -571 Descending FlightAware ADS-B
Wed 12:49:47 AM 26.1250 -80.3220 191° South 179 206 2,500 -581 Descending FlightAware ADS-B
Wed 12:50:07 AM 26.1080 -80.3210 177° South 175 201 2,300 -400 Descending FlightAware ADS-B
Wed 12:50:32 AM 26.0880 -80.3160 167° South 179 206 2,200 -200 Descending FlightAware ADS-B
Wed 12:50:37 AM 26.0850 -80.3130 138° Southeast 179 206 2,200 -667 Level FlightAware ADS-B
Wed 12:50:41 AM 26.0830 -80.3090 119° Southeast 175 201 2,100 -857 Descending FlightAware ADS-B
Wed 12:50:51 AM 26.0790 -80.3010 119° Southeast 178 205 2,000 -300 Descending FlightAware ADS-B
Wed 12:51:01 AM 26.0780 -80.2920 97° East 173 199 2,000 -286 Level FlightAware ADS-B
Wed 12:51:12 AM 26.0780 -80.2830 90° East 167 192 1,900 -774 Descending FlightAware ADS-B
Wed 12:51:32 AM 26.0780 -80.2670 90° East 155 178 1,600 -818 Descending FlightAware ADS-B
Wed 12:51:56 AM 26.0770 -80.2480 93° East 138 159 1,300 -706 Descending FlightAware ADS-B
Wed 12:52:06 AM 26.0770 -80.2420 90° East 135 155 1,200 -600 Descending FlightAware ADS-B
Wed 12:52:26 AM 26.0770 -80.2280 90° East 135 155 1,000 -700 Descending FlightAware ADS-B
Wed 12:53:06 AM 26.0770 -80.2000 90° East 133 153 500 -588 Descending FlightAware ADS-B
Wed 12:53:17 AM 26.0770 -80.1950 90° East 133 153 500 -667 Level FlightAware ADS-B
Wed 12:53:42 AM 26.0770 -80.1760 90° East 136 157 100 -960 Descending FlightAware ADS-B
Wed 12:54:19 AM 26.0770 -80.1540 90° East 136 157 -162 Descending FlightAware ADS-B
Wed 12:54:51 AM 26.0770 -80.1410 90° East 86 99  Level FlightAware ADS-B
Wed 01:01:00 AM 26.0726 -80.1527 99° East  Level Estimated

Login

Don't have an account? Register now (free) for customized features, flight alerts, and more!